sensor_id;sensor_type;location;lat;lon;timestamp;P1;durP1;ratioP1;P2;durP2;ratioP2
36105;SDS011;22159;55.736;38.048;2023-04-08T00:00:04;2.53;;;1.10;;
36105;SDS011;22159;55.736;38.048;2023-04-08T00:02:31;1.75;;;1.20;;
36105;SDS011;22159;55.736;38.048;2023-04-08T00:04:57;1.50;;;1.15;;
36105;SDS011;22159;55.736;38.048;2023-04-08T00:07:23;1.58;;;1.15;;
36105;SDS011;22159;55.736;38.048;2023-04-08T00:09:49;1.60;;;1.08;;
36105;SDS011;22159;55.736;38.048;2023-04-08T00:12:15;2.03;;;1.40;;
36105;SDS011;22159;55.736;38.048;2023-04-08T00:14:41;2.13;;;1.05;;
36105;SDS011;22159;55.736;38.048;2023-04-08T00:17:07;1.20;;;0.90;;
36105;SDS011;22159;55.736;38.048;2023-04-08T00:19:33;2.97;;;1.13;;
36105;SDS011;22159;55.736;38.048;2023-04-08T00:22:00;1.98;;;1.10;;
36105;SDS011;22159;55.736;38.048;2023-04-08T00:24:26;2.10;;;1.00;;
36105;SDS011;22159;55.736;38.048;2023-04-08T00:26:52;2.72;;;1.30;;
36105;SDS011;22159;55.736;38.048;2023-04-08T00:29:18;1.40;;;1.20;;
36105;SDS011;22159;55.736;38.048;2023-04-08T00:31:44;1.65;;;1.15;;
36105;SDS011;22159;55.736;38.048;2023-04-08T00:34:10;1.75;;;1.00;;
36105;SDS011;22159;55.736;38.048;2023-04-08T00:36:36;1.33;;;1.20;;
36105;SDS011;22159;55.736;38.048;2023-04-08T00:39:03;1.17;;;1.08;;
36105;SDS011;22159;55.736;38.048;2023-04-08T00:41:32;1.98;;;1.30;;
36105;SDS011;22159;55.736;38.048;2023-04-08T00:43:58;1.63;;;1.15;;
36105;SDS011;22159;55.736;38.048;2023-04-08T00:46:24;1.75;;;1.30;;
36105;SDS011;22159;55.736;38.048;2023-04-08T00:48:50;1.80;;;1.17;;
36105;SDS011;22159;55.736;38.048;2023-04-08T00:51:17;2.20;;;0.95;;
36105;SDS011;22159;55.736;38.048;2023-04-08T00:53:43;1.42;;;1.00;;
36105;SDS011;22159;55.736;38.048;2023-04-08T00:56:09;1.70;;;0.90;;
36105;SDS011;22159;55.736;38.048;2023-04-08T00:58:36;1.00;;;0.82;;
36105;SDS011;22159;55.736;38.048;2023-04-08T01:01:02;1.73;;;1.02;;
36105;SDS011;22159;55.736;38.048;2023-04-08T01:06:24;1.42;;;1.23;;
36105;SDS011;22159;55.736;38.048;2023-04-08T01:08:51;1.23;;;1.00;;
36105;SDS011;22159;55.736;38.048;2023-04-08T01:11:17;1.33;;;1.23;;
36105;SDS011;22159;55.736;38.048;2023-04-08T01:13:44;1.50;;;1.27;;
36105;SDS011;22159;55.736;38.048;2023-04-08T01:16:12;1.67;;;1.15;;
36105;SDS011;22159;55.736;38.048;2023-04-08T01:18:38;1.30;;;1.20;;
36105;SDS011;22159;55.736;38.048;2023-04-08T01:21:06;1.33;;;1.00;;
36105;SDS011;22159;55.736;38.048;2023-04-08T01:25:58;1.58;;;1.17;;
36105;SDS011;22159;55.736;38.048;2023-04-08T01:28:26;1.25;;;1.00;;
36105;SDS011;22159;55.736;38.048;2023-04-08T01:30:53;1.60;;;1.08;;
36105;SDS011;22159;55.736;38.048;2023-04-08T01:33:20;1.17;;;1.08;;
36105;SDS011;22159;55.736;38.048;2023-04-08T01:35:47;1.42;;;1.10;;
36105;SDS011;22159;55.736;38.048;2023-04-08T01:38:14;1.45;;;1.20;;
36105;SDS011;22159;55.736;38.048;2023-04-08T01:40:41;1.40;;;1.00;;
36105;SDS011;22159;55.736;38.048;2023-04-08T01:43:07;1.23;;;1.13;;
36105;SDS011;22159;55.736;38.048;2023-04-08T01:45:34;1.48;;;1.02;;
36105;SDS011;22159;55.736;38.048;2023-04-08T01:48:00;1.40;;;1.20;;
36105;SDS011;22159;55.736;38.048;2023-04-08T01:50:27;1.80;;;1.27;;
36105;SDS011;22159;55.736;38.048;2023-04-08T01:52:53;1.45;;;1.13;;
36105;SDS011;22159;55.736;38.048;2023-04-08T01:55:19;1.58;;;1.30;;
36105;SDS011;22159;55.736;38.048;2023-04-08T01:57:49;1.42;;;1.27;;
36105;SDS011;22159;55.736;38.048;2023-04-08T02:00:20;2.08;;;1.20;;
36105;SDS011;22159;55.736;38.048;2023-04-08T02:02:47;1.73;;;1.13;;
36105;SDS011;22159;55.736;38.048;2023-04-08T02:05:14;1.65;;;1.05;;
36105;SDS011;22159;55.736;38.048;2023-04-08T02:07:40;1.42;;;1.20;;
36105;SDS011;22159;55.736;38.048;2023-04-08T02:10:06;1.75;;;1.20;;
36105;SDS011;22159;55.736;38.048;2023-04-08T02:12:32;1.30;;;1.00;;
36105;SDS011;22159;55.736;38.048;2023-04-08T02:14:59;1.10;;;1.00;;
36105;SDS011;22159;55.736;38.048;2023-04-08T02:17:32;1.67;;;1.23;;
36105;SDS011;22159;55.736;38.048;2023-04-08T02:22:42;2.25;;;1.08;;
36105;SDS011;22159;55.736;38.048;2023-04-08T02:25:10;1.10;;;0.95;;
36105;SDS011;22159;55.736;38.048;2023-04-08T02:27:38;1.38;;;1.10;;
36105;SDS011;22159;55.736;38.048;2023-04-08T02:30:05;1.05;;;0.95;;
36105;SDS011;22159;55.736;38.048;2023-04-08T02:32:33;1.20;;;1.02;;
36105;SDS011;22159;55.736;38.048;2023-04-08T02:35:03;1.27;;;1.10;;
36105;SDS011;22159;55.736;38.048;2023-04-08T02:37:29;1.43;;;1.03;;
36105;SDS011;22159;55.736;38.048;2023-04-08T02:39:56;1.27;;;1.08;;
36105;SDS011;22159;55.736;38.048;2023-04-08T02:42:22;1.67;;;1.20;;
36105;SDS011;22159;55.736;38.048;2023-04-08T02:44:48;2.03;;;1.05;;
36105;SDS011;22159;55.736;38.048;2023-04-08T02:47:14;1.17;;;1.08;;
36105;SDS011;22159;55.736;38.048;2023-04-08T02:49:40;1.35;;;1.00;;
36105;SDS011;22159;55.736;38.048;2023-04-08T02:52:06;2.10;;;1.10;;
36105;SDS011;22159;55.736;38.048;2023-04-08T02:54:32;1.20;;;0.95;;
36105;SDS011;22159;55.736;38.048;2023-04-08T02:56:59;1.50;;;0.75;;
36105;SDS011;22159;55.736;38.048;2023-04-08T02:59:25;2.13;;;1.20;;
36105;SDS011;22159;55.736;38.048;2023-04-08T03:01:51;1.55;;;1.17;;
36105;SDS011;22159;55.736;38.048;2023-04-08T03:04:17;2.05;;;1.17;;
36105;SDS011;22159;55.736;38.048;2023-04-08T03:06:43;1.33;;;1.00;;
36105;SDS011;22159;55.736;38.048;2023-04-08T03:09:09;1.35;;;1.05;;
36105;SDS011;22159;55.736;38.048;2023-04-08T03:11:35;1.27;;;1.17;;
36105;SDS011;22159;55.736;38.048;2023-04-08T03:14:01;2.30;;;1.23;;
36105;SDS011;22159;55.736;38.048;2023-04-08T03:16:27;2.42;;;1.40;;
36105;SDS011;22159;55.736;38.048;2023-04-08T03:18:53;1.42;;;1.10;;
36105;SDS011;22159;55.736;38.048;2023-04-08T03:21:19;1.15;;;1.00;;
36105;SDS011;22159;55.736;38.048;2023-04-08T03:23:45;1.27;;;1.13;;
36105;SDS011;22159;55.736;38.048;2023-04-08T03:26:11;1.45;;;1.20;;
36105;SDS011;22159;55.736;38.048;2023-04-08T03:28:37;1.90;;;1.00;;
36105;SDS011;22159;55.736;38.048;2023-04-08T03:31:03;1.55;;;1.10;;
36105;SDS011;22159;55.736;38.048;2023-04-08T03:33:29;2.35;;;1.40;;
36105;SDS011;22159;55.736;38.048;2023-04-08T03:35:55;1.20;;;1.10;;
36105;SDS011;22159;55.736;38.048;2023-04-08T03:38:21;1.90;;;1.33;;
36105;SDS011;22159;55.736;38.048;2023-04-08T03:40:48;1.90;;;1.02;;
36105;SDS011;22159;55.736;38.048;2023-04-08T03:43:14;2.00;;;1.30;;
36105;SDS011;22159;55.736;38.048;2023-04-08T03:45:40;1.20;;;1.00;;
36105;SDS011;22159;55.736;38.048;2023-04-08T03:48:06;1.60;;;1.00;;
36105;SDS011;22159;55.736;38.048;2023-04-08T03:50:32;1.65;;;1.10;;
36105;SDS011;22159;55.736;38.048;2023-04-08T03:52:58;1.95;;;1.30;;
36105;SDS011;22159;55.736;38.048;2023-04-08T03:55:24;1.20;;;1.10;;
36105;SDS011;22159;55.736;38.048;2023-04-08T03:57:50;1.50;;;1.15;;
36105;SDS011;22159;55.736;38.048;2023-04-08T04:00:16;1.63;;;1.20;;
36105;SDS011;22159;55.736;38.048;2023-04-08T04:02:42;2.15;;;1.25;;
36105;SDS011;22159;55.736;38.048;2023-04-08T04:05:08;1.95;;;1.13;;
36105;SDS011;22159;55.736;38.048;2023-04-08T04:07:34;2.20;;;1.08;;
36105;SDS011;22159;55.736;38.048;2023-04-08T04:10:00;1.42;;;0.93;;
36105;SDS011;22159;55.736;38.048;2023-04-08T04:12:27;2.15;;;1.10;;
36105;SDS011;22159;55.736;38.048;2023-04-08T04:14:53;2.33;;;1.10;;
36105;SDS011;22159;55.736;38.048;2023-04-08T04:17:19;2.15;;;1.35;;
36105;SDS011;22159;55.736;38.048;2023-04-08T04:19:46;1.63;;;1.00;;
36105;SDS011;22159;55.736;38.048;2023-04-08T04:22:13;1.02;;;0.93;;
36105;SDS011;22159;55.736;38.048;2023-04-08T04:24:39;1.67;;;1.13;;
36105;SDS011;22159;55.736;38.048;2023-04-08T04:27:05;1.30;;;1.02;;
36105;SDS011;22159;55.736;38.048;2023-04-08T04:29:31;2.10;;;1.02;;
36105;SDS011;22159;55.736;38.048;2023-04-08T04:31:57;1.52;;;0.90;;
36105;SDS011;22159;55.736;38.048;2023-04-08T04:34:23;1.02;;;0.90;;
36105;SDS011;22159;55.736;38.048;2023-04-08T04:36:49;1.65;;;1.17;;
36105;SDS011;22159;55.736;38.048;2023-04-08T04:39:15;1.48;;;0.95;;
36105;SDS011;22159;55.736;38.048;2023-04-08T04:41:41;1.50;;;1.02;;
36105;SDS011;22159;55.736;38.048;2023-04-08T04:44:08;2.15;;;1.40;;
36105;SDS011;22159;55.736;38.048;2023-04-08T04:46:34;1.50;;;1.30;;
36105;SDS011;22159;55.736;38.048;2023-04-08T04:49:00;2.13;;;1.10;;
36105;SDS011;22159;55.736;38.048;2023-04-08T04:51:26;1.88;;;1.00;;
36105;SDS011;22159;55.736;38.048;2023-04-08T04:53:52;1.95;;;1.10;;
36105;SDS011;22159;55.736;38.048;2023-04-08T04:56:18;1.63;;;1.20;;
36105;SDS011;22159;55.736;38.048;2023-04-08T04:58:45;2.05;;;1.30;;
36105;SDS011;22159;55.736;38.048;2023-04-08T05:01:11;3.28;;;1.33;;
36105;SDS011;22159;55.736;38.048;2023-04-08T05:03:37;1.77;;;1.13;;
36105;SDS011;22159;55.736;38.048;2023-04-08T05:06:03;1.88;;;1.00;;
36105;SDS011;22159;55.736;38.048;2023-04-08T05:08:30;2.05;;;1.33;;
36105;SDS011;22159;55.736;38.048;2023-04-08T05:10:56;2.30;;;1.00;;
36105;SDS011;22159;55.736;38.048;2023-04-08T05:13:23;1.30;;;1.20;;
36105;SDS011;22159;55.736;38.048;2023-04-08T05:15:49;1.40;;;1.10;;
36105;SDS011;22159;55.736;38.048;2023-04-08T05:18:15;1.73;;;1.17;;
36105;SDS011;22159;55.736;38.048;2023-04-08T05:20:41;2.45;;;1.23;;
36105;SDS011;22159;55.736;38.048;2023-04-08T05:23:07;5.05;;;2.85;;
36105;SDS011;22159;55.736;38.048;2023-04-08T05:25:33;5.75;;;3.17;;
36105;SDS011;22159;55.736;38.048;2023-04-08T05:28:00;6.50;;;3.30;;
36105;SDS011;22159;55.736;38.048;2023-04-08T05:30:26;3.97;;;2.85;;
36105;SDS011;22159;55.736;38.048;2023-04-08T05:32:52;5.85;;;2.85;;
36105;SDS011;22159;55.736;38.048;2023-04-08T05:35:18;3.35;;;2.17;;
36105;SDS011;22159;55.736;38.048;2023-04-08T05:37:44;4.55;;;2.85;;
36105;SDS011;22159;55.736;38.048;2023-04-08T05:40:10;5.32;;;2.15;;
36105;SDS011;22159;55.736;38.048;2023-04-08T05:42:36;4.60;;;2.60;;
36105;SDS011;22159;55.736;38.048;2023-04-08T05:45:02;4.50;;;2.28;;
36105;SDS011;22159;55.736;38.048;2023-04-08T05:47:28;3.10;;;2.03;;
36105;SDS011;22159;55.736;38.048;2023-04-08T05:49:54;4.50;;;2.05;;
36105;SDS011;22159;55.736;38.048;2023-04-08T05:52:21;3.15;;;1.98;;
36105;SDS011;22159;55.736;38.048;2023-04-08T05:54:47;3.47;;;2.22;;
36105;SDS011;22159;55.736;38.048;2023-04-08T05:57:13;3.55;;;2.00;;
36105;SDS011;22159;55.736;38.048;2023-04-08T05:59:40;3.63;;;2.10;;
36105;SDS011;22159;55.736;38.048;2023-04-08T06:02:06;2.67;;;1.90;;
36105;SDS011;22159;55.736;38.048;2023-04-08T06:04:32;3.20;;;1.80;;
36105;SDS011;22159;55.736;38.048;2023-04-08T06:06:58;3.33;;;1.60;;
36105;SDS011;22159;55.736;38.048;2023-04-08T06:09:26;3.08;;;1.80;;
36105;SDS011;22159;55.736;38.048;2023-04-08T06:11:52;2.90;;;1.83;;
36105;SDS011;22159;55.736;38.048;2023-04-08T06:14:18;2.53;;;1.92;;
36105;SDS011;22159;55.736;38.048;2023-04-08T06:16:45;2.63;;;1.63;;
36105;SDS011;22159;55.736;38.048;2023-04-08T06:19:11;2.65;;;1.60;;
36105;SDS011;22159;55.736;38.048;2023-04-08T06:21:37;3.28;;;1.80;;
36105;SDS011;22159;55.736;38.048;2023-04-08T06:24:03;2.92;;;2.10;;
36105;SDS011;22159;55.736;38.048;2023-04-08T06:26:29;2.05;;;1.70;;
36105;SDS011;22159;55.736;38.048;2023-04-08T06:28:55;2.50;;;1.45;;
36105;SDS011;22159;55.736;38.048;2023-04-08T06:31:21;4.57;;;1.88;;
36105;SDS011;22159;55.736;38.048;2023-04-08T06:33:48;3.03;;;1.40;;
36105;SDS011;22159;55.736;38.048;2023-04-08T06:36:14;2.67;;;1.73;;
36105;SDS011;22159;55.736;38.048;2023-04-08T06:38:40;3.25;;;1.38;;
36105;SDS011;22159;55.736;38.048;2023-04-08T06:41:07;2.42;;;1.50;;
36105;SDS011;22159;55.736;38.048;2023-04-08T06:43:34;2.65;;;1.50;;
36105;SDS011;22159;55.736;38.048;2023-04-08T06:46:01;1.55;;;1.20;;
36105;SDS011;22159;55.736;38.048;2023-04-08T06:48:27;5.30;;;1.83;;
36105;SDS011;22159;55.736;38.048;2023-04-08T06:50:57;2.28;;;1.65;;
36105;SDS011;22159;55.736;38.048;2023-04-08T06:53:23;3.35;;;1.70;;
36105;SDS011;22159;55.736;38.048;2023-04-08T06:55:49;1.90;;;1.40;;
36105;SDS011;22159;55.736;38.048;2023-04-08T06:58:16;3.97;;;1.67;;
36105;SDS011;22159;55.736;38.048;2023-04-08T07:00:42;2.70;;;1.50;;
36105;SDS011;22159;55.736;38.048;2023-04-08T07:03:08;2.20;;;1.38;;
36105;SDS011;22159;55.736;38.048;2023-04-08T07:05:37;2.88;;;1.40;;
36105;SDS011;22159;55.736;38.048;2023-04-08T07:08:04;2.55;;;1.63;;
36105;SDS011;22159;55.736;38.048;2023-04-08T07:10:30;4.72;;;1.70;;
36105;SDS011;22159;55.736;38.048;2023-04-08T07:12:56;4.28;;;1.50;;
36105;SDS011;22159;55.736;38.048;2023-04-08T07:15:22;3.00;;;1.38;;
36105;SDS011;22159;55.736;38.048;2023-04-08T07:17:48;1.67;;;1.20;;
36105;SDS011;22159;55.736;38.048;2023-04-08T07:20:15;3.20;;;1.60;;
36105;SDS011;22159;55.736;38.048;2023-04-08T07:22:42;3.92;;;1.30;;
36105;SDS011;22159;55.736;38.048;2023-04-08T07:25:08;2.65;;;1.38;;
36105;SDS011;22159;55.736;38.048;2023-04-08T07:27:34;4.70;;;1.30;;
36105;SDS011;22159;55.736;38.048;2023-04-08T07:30:00;2.92;;;1.55;;
36105;SDS011;22159;55.736;38.048;2023-04-08T07:32:27;2.63;;;1.45;;
36105;SDS011;22159;55.736;38.048;2023-04-08T07:34:53;1.90;;;1.20;;
36105;SDS011;22159;55.736;38.048;2023-04-08T07:37:19;2.00;;;1.10;;
36105;SDS011;22159;55.736;38.048;2023-04-08T07:39:45;3.30;;;1.60;;
36105;SDS011;22159;55.736;38.048;2023-04-08T07:42:11;2.25;;;1.50;;
36105;SDS011;22159;55.736;38.048;2023-04-08T07:44:37;3.00;;;1.25;;
36105;SDS011;22159;55.736;38.048;2023-04-08T07:47:03;1.45;;;0.90;;
36105;SDS011;22159;55.736;38.048;2023-04-08T07:49:29;1.40;;;1.27;;
36105;SDS011;22159;55.736;38.048;2023-04-08T07:51:55;3.13;;;1.23;;
36105;SDS011;22159;55.736;38.048;2023-04-08T07:54:21;4.35;;;1.20;;
36105;SDS011;22159;55.736;38.048;2023-04-08T07:56:47;1.75;;;1.40;;
36105;SDS011;22159;55.736;38.048;2023-04-08T07:59:13;1.67;;;1.17;;
36105;SDS011;22159;55.736;38.048;2023-04-08T08:01:39;2.45;;;1.20;;
36105;SDS011;22159;55.736;38.048;2023-04-08T08:04:05;2.22;;;1.33;;
36105;SDS011;22159;55.736;38.048;2023-04-08T08:06:31;3.55;;;1.40;;
36105;SDS011;22159;55.736;38.048;2023-04-08T08:08:57;1.90;;;1.33;;
36105;SDS011;22159;55.736;38.048;2023-04-08T08:11:23;1.83;;;1.00;;
36105;SDS011;22159;55.736;38.048;2023-04-08T08:13:51;1.73;;;1.10;;
36105;SDS011;22159;55.736;38.048;2023-04-08T08:16:17;2.38;;;1.20;;
36105;SDS011;22159;55.736;38.048;2023-04-08T08:18:43;2.03;;;1.20;;
36105;SDS011;22159;55.736;38.048;2023-04-08T08:21:09;2.70;;;1.15;;
36105;SDS011;22159;55.736;38.048;2023-04-08T08:23:36;1.83;;;1.30;;
36105;SDS011;22159;55.736;38.048;2023-04-08T08:26:03;2.67;;;1.40;;
36105;SDS011;22159;55.736;38.048;2023-04-08T08:28:30;2.42;;;1.30;;
36105;SDS011;22159;55.736;38.048;2023-04-08T08:30:56;1.20;;;1.00;;
36105;SDS011;22159;55.736;38.048;2023-04-08T08:33:22;3.10;;;1.30;;
36105;SDS011;22159;55.736;38.048;2023-04-08T08:35:49;2.53;;;1.17;;
36105;SDS011;22159;55.736;38.048;2023-04-08T08:38:15;3.20;;;1.20;;
36105;SDS011;22159;55.736;38.048;2023-04-08T08:40:42;2.13;;;0.98;;
36105;SDS011;22159;55.736;38.048;2023-04-08T08:43:09;3.95;;;1.50;;
36105;SDS011;22159;55.736;38.048;2023-04-08T08:45:41;2.97;;;1.20;;
36105;SDS011;22159;55.736;38.048;2023-04-08T08:48:07;4.43;;;1.25;;
36105;SDS011;22159;55.736;38.048;2023-04-08T08:50:34;3.45;;;1.40;;
36105;SDS011;22159;55.736;38.048;2023-04-08T08:53:00;4.53;;;1.58;;
36105;SDS011;22159;55.736;38.048;2023-04-08T08:55:28;3.28;;;1.20;;
36105;SDS011;22159;55.736;38.048;2023-04-08T08:57:55;1.95;;;1.25;;
36105;SDS011;22159;55.736;38.048;2023-04-08T09:00:31;4.55;;;1.33;;
36105;SDS011;22159;55.736;38.048;2023-04-08T09:03:12;6.88;;;1.52;;
36105;SDS011;22159;55.736;38.048;2023-04-08T09:05:54;5.25;;;1.30;;
36105;SDS011;22159;55.736;38.048;2023-04-08T09:10:50;2.88;;;1.10;;
36105;SDS011;22159;55.736;38.048;2023-04-08T09:13:16;3.42;;;1.33;;
36105;SDS011;22159;55.736;38.048;2023-04-08T09:18:28;2.88;;;1.30;;
36105;SDS011;22159;55.736;38.048;2023-04-08T09:20:54;3.90;;;1.55;;
36105;SDS011;22159;55.736;38.048;2023-04-08T09:23:20;4.30;;;1.45;;
36105;SDS011;22159;55.736;38.048;2023-04-08T09:25:46;3.75;;;1.20;;
36105;SDS011;22159;55.736;38.048;2023-04-08T09:28:21;3.45;;;1.30;;
36105;SDS011;22159;55.736;38.048;2023-04-08T09:30:47;3.70;;;1.50;;
36105;SDS011;22159;55.736;38.048;2023-04-08T09:33:13;3.10;;;1.45;;
36105;SDS011;22159;55.736;38.048;2023-04-08T09:35:39;2.78;;;1.33;;
36105;SDS011;22159;55.736;38.048;2023-04-08T09:38:05;4.47;;;1.35;;
36105;SDS011;22159;55.736;38.048;2023-04-08T09:40:32;5.28;;;1.48;;
36105;SDS011;22159;55.736;38.048;2023-04-08T09:43:05;4.38;;;1.50;;
36105;SDS011;22159;55.736;38.048;2023-04-08T09:45:34;4.35;;;1.40;;
36105;SDS011;22159;55.736;38.048;2023-04-08T09:48:20;4.03;;;1.38;;
36105;SDS011;22159;55.736;38.048;2023-04-08T09:50:48;2.30;;;1.55;;
36105;SDS011;22159;55.736;38.048;2023-04-08T09:53:19;5.82;;;1.40;;
36105;SDS011;22159;55.736;38.048;2023-04-08T09:55:51;1.85;;;1.23;;
36105;SDS011;22159;55.736;38.048;2023-04-08T09:58:20;2.65;;;1.50;;
36105;SDS011;22159;55.736;38.048;2023-04-08T10:00:48;2.58;;;1.42;;
36105;SDS011;22159;55.736;38.048;2023-04-08T10:03:25;2.67;;;1.20;;
36105;SDS011;22159;55.736;38.048;2023-04-08T10:05:52;5.25;;;1.33;;
36105;SDS011;22159;55.736;38.048;2023-04-08T10:08:20;5.40;;;1.38;;
36105;SDS011;22159;55.736;38.048;2023-04-08T10:10:46;4.88;;;1.27;;
36105;SDS011;22159;55.736;38.048;2023-04-08T10:13:12;1.77;;;1.27;;
36105;SDS011;22159;55.736;38.048;2023-04-08T10:15:39;4.07;;;1.38;;
36105;SDS011;22159;55.736;38.048;2023-04-08T10:23:02;1.83;;;0.98;;
36105;SDS011;22159;55.736;38.048;2023-04-08T10:28:17;3.42;;;1.20;;
36105;SDS011;22159;55.736;38.048;2023-04-08T10:30:48;3.35;;;1.40;;
36105;SDS011;22159;55.736;38.048;2023-04-08T10:33:20;2.97;;;1.27;;
36105;SDS011;22159;55.736;38.048;2023-04-08T10:35:47;3.38;;;1.33;;
36105;SDS011;22159;55.736;38.048;2023-04-08T10:38:14;3.25;;;1.23;;
36105;SDS011;22159;55.736;38.048;2023-04-08T10:40:41;3.63;;;1.10;;
36105;SDS011;22159;55.736;38.048;2023-04-08T10:43:08;2.78;;;1.10;;
36105;SDS011;22159;55.736;38.048;2023-04-08T10:45:34;3.17;;;1.00;;
36105;SDS011;22159;55.736;38.048;2023-04-08T10:50:39;5.25;;;1.40;;
36105;SDS011;22159;55.736;38.048;2023-04-08T10:53:05;2.55;;;1.10;;
36105;SDS011;22159;55.736;38.048;2023-04-08T10:55:32;3.55;;;1.17;;
36105;SDS011;22159;55.736;38.048;2023-04-08T10:58:08;3.42;;;1.02;;
36105;SDS011;22159;55.736;38.048;2023-04-08T11:00:37;4.22;;;1.23;;
36105;SDS011;22159;55.736;38.048;2023-04-08T11:03:04;1.70;;;0.80;;
36105;SDS011;22159;55.736;38.048;2023-04-08T11:05:31;2.50;;;1.08;;
36105;SDS011;22159;55.736;38.048;2023-04-08T11:07:57;3.53;;;1.08;;
36105;SDS011;22159;55.736;38.048;2023-04-08T11:10:24;4.53;;;1.13;;
36105;SDS011;22159;55.736;38.048;2023-04-08T11:12:50;2.50;;;0.93;;
36105;SDS011;22159;55.736;38.048;2023-04-08T11:15:18;2.80;;;0.88;;
36105;SDS011;22159;55.736;38.048;2023-04-08T11:17:44;3.60;;;1.20;;
36105;SDS011;22159;55.736;38.048;2023-04-08T11:20:11;1.98;;;1.13;;
36105;SDS011;22159;55.736;38.048;2023-04-08T11:22:38;2.33;;;1.13;;
36105;SDS011;22159;55.736;38.048;2023-04-08T11:25:05;2.35;;;1.15;;
36105;SDS011;22159;55.736;38.048;2023-04-08T11:27:32;2.83;;;1.10;;
36105;SDS011;22159;55.736;38.048;2023-04-08T11:29:59;3.63;;;1.27;;
36105;SDS011;22159;55.736;38.048;2023-04-08T11:32:26;3.17;;;1.13;;
36105;SDS011;22159;55.736;38.048;2023-04-08T11:34:53;2.10;;;1.20;;
36105;SDS011;22159;55.736;38.048;2023-04-08T11:37:19;4.60;;;0.98;;
36105;SDS011;22159;55.736;38.048;2023-04-08T11:39:46;3.50;;;1.00;;
36105;SDS011;22159;55.736;38.048;2023-04-08T11:42:31;2.05;;;1.20;;
36105;SDS011;22159;55.736;38.048;2023-04-08T11:44:57;3.35;;;1.13;;
36105;SDS011;22159;55.736;38.048;2023-04-08T11:47:30;2.47;;;1.27;;
36105;SDS011;22159;55.736;38.048;2023-04-08T11:49:57;3.22;;;1.02;;
36105;SDS011;22159;55.736;38.048;2023-04-08T11:52:39;2.03;;;1.23;;
36105;SDS011;22159;55.736;38.048;2023-04-08T11:55:06;2.20;;;1.15;;
36105;SDS011;22159;55.736;38.048;2023-04-08T11:57:32;3.47;;;1.15;;
36105;SDS011;22159;55.736;38.048;2023-04-08T11:59:58;1.90;;;0.90;;
36105;SDS011;22159;55.736;38.048;2023-04-08T12:02:24;3.20;;;1.00;;
36105;SDS011;22159;55.736;38.048;2023-04-08T12:04:50;3.88;;;1.20;;
36105;SDS011;22159;55.736;38.048;2023-04-08T12:07:16;4.72;;;1.05;;
36105;SDS011;22159;55.736;38.048;2023-04-08T12:09:42;5.22;;;1.20;;
36105;SDS011;22159;55.736;38.048;2023-04-08T12:12:08;3.15;;;1.02;;
36105;SDS011;22159;55.736;38.048;2023-04-08T12:14:34;2.92;;;0.98;;
36105;SDS011;22159;55.736;38.048;2023-04-08T12:17:00;2.95;;;1.50;;
36105;SDS011;22159;55.736;38.048;2023-04-08T12:19:26;2.00;;;1.20;;
36105;SDS011;22159;55.736;38.048;2023-04-08T12:21:52;2.92;;;1.50;;
36105;SDS011;22159;55.736;38.048;2023-04-08T12:24:18;4.20;;;1.33;;
36105;SDS011;22159;55.736;38.048;2023-04-08T12:26:45;2.53;;;1.20;;
36105;SDS011;22159;55.736;38.048;2023-04-08T12:29:11;3.13;;;1.52;;
36105;SDS011;22159;55.736;38.048;2023-04-08T12:31:37;5.30;;;1.65;;
36105;SDS011;22159;55.736;38.048;2023-04-08T12:34:03;2.75;;;1.48;;
36105;SDS011;22159;55.736;38.048;2023-04-08T12:36:30;3.33;;;1.63;;
36105;SDS011;22159;55.736;38.048;2023-04-08T12:38:57;6.93;;;1.50;;
36105;SDS011;22159;55.736;38.048;2023-04-08T12:41:23;4.22;;;1.70;;
36105;SDS011;22159;55.736;38.048;2023-04-08T12:43:49;3.67;;;1.63;;
36105;SDS011;22159;55.736;38.048;2023-04-08T12:46:15;3.75;;;1.75;;
36105;SDS011;22159;55.736;38.048;2023-04-08T12:48:41;1.92;;;1.65;;
36105;SDS011;22159;55.736;38.048;2023-04-08T12:51:09;5.50;;;2.00;;
36105;SDS011;22159;55.736;38.048;2023-04-08T12:53:36;4.85;;;2.08;;
36105;SDS011;22159;55.736;38.048;2023-04-08T12:56:02;4.03;;;1.88;;
36105;SDS011;22159;55.736;38.048;2023-04-08T12:58:28;3.30;;;2.00;;
36105;SDS011;22159;55.736;38.048;2023-04-08T13:00:54;5.57;;;2.08;;
36105;SDS011;22159;55.736;38.048;2023-04-08T13:03:20;3.13;;;1.90;;
36105;SDS011;22159;55.736;38.048;2023-04-08T13:05:46;4.03;;;2.00;;
36105;SDS011;22159;55.736;38.048;2023-04-08T13:08:13;4.97;;;2.20;;
36105;SDS011;22159;55.736;38.048;2023-04-08T13:10:40;5.05;;;2.47;;
36105;SDS011;22159;55.736;38.048;2023-04-08T13:13:07;4.70;;;2.90;;
36105;SDS011;22159;55.736;38.048;2023-04-08T13:15:33;2.83;;;2.33;;
36105;SDS011;22159;55.736;38.048;2023-04-08T13:17:59;5.07;;;2.95;;
36105;SDS011;22159;55.736;38.048;2023-04-08T13:20:25;3.55;;;2.65;;
36105;SDS011;22159;55.736;38.048;2023-04-08T13:22:52;6.20;;;2.25;;
36105;SDS011;22159;55.736;38.048;2023-04-08T13:25:18;5.25;;;3.03;;
36105;SDS011;22159;55.736;38.048;2023-04-08T13:27:44;5.03;;;2.78;;
36105;SDS011;22159;55.736;38.048;2023-04-08T13:30:11;6.85;;;3.03;;
36105;SDS011;22159;55.736;38.048;2023-04-08T13:32:37;3.65;;;2.80;;
36105;SDS011;22159;55.736;38.048;2023-04-08T13:35:03;4.32;;;2.60;;
36105;SDS011;22159;55.736;38.048;2023-04-08T13:37:29;4.50;;;3.13;;
36105;SDS011;22159;55.736;38.048;2023-04-08T13:39:55;5.50;;;3.20;;
36105;SDS011;22159;55.736;38.048;2023-04-08T13:42:21;5.22;;;3.08;;
36105;SDS011;22159;55.736;38.048;2023-04-08T13:44:47;5.18;;;2.88;;
36105;SDS011;22159;55.736;38.048;2023-04-08T13:47:13;6.78;;;2.95;;
36105;SDS011;22159;55.736;38.048;2023-04-08T13:49:40;4.22;;;3.17;;
36105;SDS011;22159;55.736;38.048;2023-04-08T13:52:06;5.75;;;3.17;;
36105;SDS011;22159;55.736;38.048;2023-04-08T13:54:32;7.70;;;3.50;;
36105;SDS011;22159;55.736;38.048;2023-04-08T13:56:58;5.95;;;2.92;;
36105;SDS011;22159;55.736;38.048;2023-04-08T13:59:25;6.40;;;3.08;;
36105;SDS011;22159;55.736;38.048;2023-04-08T14:01:51;5.32;;;2.83;;
36105;SDS011;22159;55.736;38.048;2023-04-08T14:04:18;4.50;;;2.83;;
36105;SDS011;22159;55.736;38.048;2023-04-08T14:06:45;4.90;;;3.00;;
36105;SDS011;22159;55.736;38.048;2023-04-08T14:09:11;4.65;;;2.65;;
36105;SDS011;22159;55.736;38.048;2023-04-08T14:11:37;5.10;;;2.95;;
36105;SDS011;22159;55.736;38.048;2023-04-08T14:14:03;6.35;;;2.95;;
36105;SDS011;22159;55.736;38.048;2023-04-08T14:16:30;3.95;;;2.70;;
36105;SDS011;22159;55.736;38.048;2023-04-08T14:18:56;5.90;;;3.17;;
36105;SDS011;22159;55.736;38.048;2023-04-08T14:21:22;4.72;;;2.90;;
36105;SDS011;22159;55.736;38.048;2023-04-08T14:23:49;3.65;;;2.85;;
36105;SDS011;22159;55.736;38.048;2023-04-08T14:26:15;5.65;;;2.72;;
36105;SDS011;22159;55.736;38.048;2023-04-08T14:28:41;3.92;;;3.00;;
36105;SDS011;22159;55.736;38.048;2023-04-08T14:31:07;3.65;;;2.88;;
36105;SDS011;22159;55.736;38.048;2023-04-08T14:33:33;4.93;;;3.22;;
36105;SDS011;22159;55.736;38.048;2023-04-08T14:35:59;6.38;;;2.88;;
36105;SDS011;22159;55.736;38.048;2023-04-08T14:38:25;3.20;;;2.50;;
36105;SDS011;22159;55.736;38.048;2023-04-08T14:40:51;3.85;;;2.50;;
36105;SDS011;22159;55.736;38.048;2023-04-08T14:43:18;3.25;;;2.50;;
36105;SDS011;22159;55.736;38.048;2023-04-08T14:45:45;2.95;;;2.28;;
36105;SDS011;22159;55.736;38.048;2023-04-08T14:48:11;3.28;;;2.63;;
36105;SDS011;22159;55.736;38.048;2023-04-08T14:50:37;3.47;;;2.70;;
36105;SDS011;22159;55.736;38.048;2023-04-08T14:53:03;4.28;;;2.78;;